Time;durP1;ratioP1;P1;durP2;ratioP2;P2;SDS_P1;SDS_P2;PMS_P1;PMS_P2;Temp;Humidity;BMP_temperature;BMP_pressure;BME280_temperature;BME280_humidity;BME280_pressure;Samples;Min_cycle;Max_cycle;Signal;HPM_P1;HPM_P2
2023/07/09 00:02:18;;;;;;;7.47;4.20;;;25.80;44.60;;;;;;4959514;28;20066;-51
2023/07/09 00:04:45;;;;;;;6.57;4.25;;;25.80;44.60;;;;;;4960701;28;20671;-50
2023/07/09 00:07:19;;;;;;;8.68;4.60;;;25.80;44.60;;;;;;4961332;28;20157;-53
2023/07/09 00:09:46;;;;;;;6.72;4.40;;;25.70;44.70;;;;;;4959827;28;20043;-51
2023/07/09 00:12:17;;;;;;;6.72;4.72;;;25.70;44.70;;;;;;4956719;28;20065;-54
2023/07/09 00:14:45;;;;;;;10.52;4.80;;;25.70;44.90;;;;;;4962373;28;20074;-48
2023/07/09 00:17:13;;;;;;;5.25;3.83;;;25.70;44.80;;;;;;4953872;28;20070;-47
2023/07/09 00:19:44;;;;;;;5.75;4.15;;;25.60;44.80;;;;;;4958022;28;20050;-49
2023/07/09 00:22:17;;;;;;;6.68;4.20;;;25.60;44.90;;;;;;4957161;28;20054;-49
2023/07/09 00:24:45;;;;;;;6.32;4.30;;;25.60;45.00;;;;;;4959698;28;20054;-50
2023/07/09 00:27:14;;;;;;;6.15;4.20;;;25.50;45.00;;;;;;4957752;28;20059;-53
2023/07/09 00:29:44;;;;;;;5.82;4.10;;;25.50;45.00;;;;;;4959060;28;20056;-52
2023/07/09 00:32:15;;;;;;;8.13;4.72;;;25.50;45.10;;;;;;4957389;28;20074;-51
2023/07/09 00:34:48;;;;;;;6.78;4.60;;;25.40;45.10;;;;;;4954723;28;20519;-54
2023/07/09 00:37:16;;;;;;;6.60;4.30;;;25.40;45.10;;;;;;4959728;28;20522;-54
2023/07/09 00:39:44;;;;;;;6.28;4.13;;;25.40;45.20;;;;;;4962539;28;20050;-55
2023/07/09 00:42:17;;;;;;;7.28;4.43;;;25.40;45.30;;;;;;4956681;28;20427;-50
2023/07/09 00:44:49;;;;;;;7.47;4.80;;;25.40;45.30;;;;;;4947469;28;20078;-52
2023/07/09 00:47:42;;;;;;;8.50;5.45;;;25.30;45.30;;;;;;4961365;28;20061;-52
2023/07/09 00:50:28;;;;;;;8.63;4.45;;;25.30;45.50;;;;;;4959491;28;20055;-52
2023/07/09 00:52:59;;;;;;;8.20;4.47;;;25.30;45.40;;;;;;4958166;28;20483;-48
2023/07/09 00:55:31;;;;;;;8.85;4.75;;;25.30;45.40;;;;;;4958699;28;20058;-54
2023/07/09 00:58:02;;;;;;;6.18;4.05;;;25.20;45.50;;;;;;4960989;28;20046;-49
2023/07/09 01:00:44;;;;;;;7.55;4.53;;;25.20;45.50;;;;;;4983539;23;20033;-64
2023/07/09 01:03:13;;;;;;;9.55;4.78;;;25.20;45.70;;;;;;4977937;28;20406;-66
2023/07/09 01:05:41;;;;;;;10.02;4.80;;;25.20;45.70;;;;;;4980854;28;20046;-64
2023/07/09 01:08:09;;;;;;;7.38;4.72;;;25.10;45.70;;;;;;4979694;28;20058;-66
2023/07/09 01:10:37;;;;;;;8.23;4.50;;;25.10;45.80;;;;;;4976894;28;20142;-64
2023/07/09 01:13:04;;;;;;;9.32;4.68;;;25.10;45.80;;;;;;4978401;28;20058;-65
2023/07/09 01:15:33;;;;;;;9.30;4.35;;;25.10;45.90;;;;;;4979512;28;20061;-66
2023/07/09 01:18:01;;;;;;;8.05;4.57;;;25.00;45.90;;;;;;4979838;28;20069;-65
2023/07/09 01:20:28;;;;;;;9.15;4.47;;;25.00;46.00;;;;;;4978778;28;20057;-66
2023/07/09 01:23:00;;;;;;;8.43;4.63;;;25.00;46.00;;;;;;4977480;28;20093;-65
2023/07/09 01:25:29;;;;;;;7.30;4.20;;;25.00;46.10;;;;;;4979269;28;20057;-63
2023/07/09 01:27:56;;;;;;;9.35;4.57;;;25.00;46.10;;;;;;4978662;28;20517;-61
2023/07/09 01:30:31;;;;;;;7.43;4.68;;;25.00;46.20;;;;;;4979372;28;20529;-63
2023/07/09 01:33:00;;;;;;;9.05;4.55;;;24.90;46.20;;;;;;4978956;28;20512;-63
2023/07/09 01:35:29;;;;;;;8.82;4.72;;;24.90;46.20;;;;;;4975663;28;20054;-63
2023/07/09 01:37:58;;;;;;;7.47;4.72;;;24.90;46.30;;;;;;4977372;28;20050;-64
2023/07/09 01:40:27;;;;;;;8.35;4.60;;;24.90;46.40;;;;;;4978146;28;20051;-63
2023/07/09 01:42:57;;;;;;;8.27;4.45;;;24.80;46.40;;;;;;4977440;28;20065;-62
2023/07/09 01:45:25;;;;;;;7.75;4.25;;;24.80;46.50;;;;;;4978348;28;20065;-62
2023/07/09 01:47:53;;;;;;;8.25;4.65;;;24.80;46.50;;;;;;4978741;28;20057;-65
2023/07/09 01:50:21;;;;;;;8.43;4.55;;;24.80;46.60;;;;;;4979482;28;20057;-63
2023/07/09 01:52:49;;;;;;;8.75;4.30;;;24.80;46.60;;;;;;4977664;28;20414;-63
2023/07/09 01:55:18;;;;;;;6.50;4.35;;;24.80;46.70;;;;;;4980069;28;21323;-64
2023/07/09 01:57:45;;;;;;;8.13;4.65;;;24.80;46.80;;;;;;4976836;28;20054;-63
2023/07/09 02:00:15;;;;;;;9.48;4.82;;;24.70;46.80;;;;;;4979877;28;20050;-62
2023/07/09 02:02:43;;;;;;;8.48;5.03;;;24.70;46.90;;;;;;4978914;28;20066;-63
2023/07/09 02:05:12;;;;;;;6.70;4.32;;;24.70;46.90;;;;;;4977435;28;20073;-63
2023/07/09 02:07:40;;;;;;;8.57;4.72;;;24.70;46.90;;;;;;4978150;28;20073;-63
2023/07/09 02:10:08;;;;;;;7.20;4.78;;;24.70;47.00;;;;;;4981634;28;20050;-64
2023/07/09 02:12:36;;;;;;;10.43;4.35;;;24.70;47.10;;;;;;4981683;28;20425;-62
2023/07/09 02:15:04;;;;;;;8.30;4.47;;;24.60;47.00;;;;;;4983717;28;20502;-63
2023/07/09 02:17:31;;;;;;;8.48;5.07;;;24.60;47.10;;;;;;4981328;28;20058;-63
2023/07/09 02:19:59;;;;;;;8.57;4.70;;;24.60;47.20;;;;;;4981697;28;20054;-63
2023/07/09 02:22:26;;;;;;;8.23;4.70;;;24.50;47.20;;;;;;4982108;28;20057;-63
2023/07/09 02:24:53;;;;;;;7.53;4.35;;;24.50;47.30;;;;;;4982767;28;20057;-63
2023/07/09 02:27:21;;;;;;;6.55;4.00;;;24.50;47.30;;;;;;4979766;28;20061;-63
2023/07/09 02:29:50;;;;;;;10.18;4.55;;;24.50;47.40;;;;;;4983596;28;20050;-64
2023/07/09 02:32:20;;;;;;;10.82;5.18;;;24.50;47.50;;;;;;4978636;28;20050;-63
2023/07/09 02:34:48;;;;;;;8.32;5.10;;;24.50;47.60;;;;;;4979458;28;20054;-63
2023/07/09 02:37:18;;;;;;;6.45;4.30;;;24.50;47.60;;;;;;4978247;28;20058;-64
2023/07/09 02:39:45;;;;;;;6.75;4.22;;;24.50;47.70;;;;;;4982034;28;20488;-62
2023/07/09 02:42:14;;;;;;;7.05;4.60;;;24.40;47.70;;;;;;4977371;28;20183;-63
2023/07/09 02:44:43;;;;;;;7.00;4.90;;;24.40;47.70;;;;;;4978559;28;20640;-64
2023/07/09 02:47:13;;;;;;;7.55;4.30;;;24.40;47.70;;;;;;4978986;28;20054;-63
2023/07/09 02:49:40;;;;;;;11.07;4.68;;;24.30;47.80;;;;;;4979908;28;20391;-64
2023/07/09 02:52:08;;;;;;;7.97;4.82;;;24.40;47.90;;;;;;4980873;28;20054;-64
2023/07/09 02:54:36;;;;;;;8.43;5.00;;;24.30;47.90;;;;;;4981486;28;20054;-63
2023/07/09 02:57:04;;;;;;;9.27;5.07;;;24.30;48.00;;;;;;4980340;28;20054;-63
2023/07/09 02:59:31;;;;;;;8.95;4.97;;;24.30;48.00;;;;;;4979582;28;20054;-64
2023/07/09 03:01:58;;;;;;;9.35;5.10;;;24.30;48.10;;;;;;4979850;28;20051;-63
2023/07/09 03:04:27;;;;;;;12.82;5.15;;;24.30;48.10;;;;;;4982108;28;20042;-64
2023/07/09 03:06:54;;;;;;;7.28;5.38;;;24.20;48.20;;;;;;4978725;28;20058;-62
2023/07/09 03:09:21;;;;;;;7.57;4.53;;;24.20;48.20;;;;;;4981068;28;20623;-63
2023/07/09 03:11:49;;;;;;;9.35;4.53;;;24.20;48.20;;;;;;4976109;28;20053;-62
2023/07/09 03:14:16;;;;;;;9.43;5.20;;;24.20;48.30;;;;;;4980494;28;20173;-63
2023/07/09 03:16:44;;;;;;;7.80;4.68;;;24.20;48.30;;;;;;4980543;28;20046;-63
2023/07/09 03:19:11;;;;;;;7.82;4.88;;;24.20;48.40;;;;;;4982038;28;20409;-62
2023/07/09 03:21:40;;;;;;;7.88;4.47;;;24.20;48.40;;;;;;4978899;28;20047;-60
2023/07/09 03:24:08;;;;;;;10.68;4.82;;;24.10;48.40;;;;;;4980805;28;20057;-61
2023/07/09 03:26:36;;;;;;;8.38;4.47;;;24.10;48.50;;;;;;4981511;28;20500;-61
2023/07/09 03:29:04;;;;;;;10.98;4.57;;;24.10;48.60;;;;;;4978969;28;20066;-60
2023/07/09 03:31:34;;;;;;;8.05;4.30;;;24.10;48.60;;;;;;4980393;28;20054;-60
2023/07/09 03:34:02;;;;;;;8.82;4.63;;;24.10;48.60;;;;;;4979925;28;20057;-62
2023/07/09 03:36:29;;;;;;;7.97;5.03;;;24.00;48.60;;;;;;4979251;28;20054;-61
2023/07/09 03:38:58;;;;;;;8.23;4.78;;;24.00;48.70;;;;;;4979592;28;20065;-60
2023/07/09 03:41:25;;;;;;;6.68;4.38;;;24.00;48.70;;;;;;4974793;28;20050;-60
2023/07/09 03:43:53;;;;;;;8.32;4.50;;;24.00;48.70;;;;;;4981428;28;20046;-59
2023/07/09 03:46:21;;;;;;;7.55;4.32;;;24.00;48.80;;;;;;4980351;28;20070;-61
2023/07/09 03:48:50;;;;;;;8.13;4.20;;;24.00;48.80;;;;;;4978741;28;20050;-60
2023/07/09 03:51:17;;;;;;;9.10;5.10;;;24.00;48.80;;;;;;4979386;28;20081;-60
2023/07/09 03:53:44;;;;;;;7.15;4.82;;;24.00;49.00;;;;;;4981341;28;20628;-60
2023/07/09 03:56:13;;;;;;;8.57;4.88;;;24.00;49.00;;;;;;4980464;28;20058;-62
2023/07/09 03:58:40;;;;;;;8.15;4.80;;;24.00;49.10;;;;;;4978786;28;20418;-61
2023/07/09 04:01:08;;;;;;;8.40;4.55;;;23.90;49.00;;;;;;4976565;28;20054;-62
2023/07/09 04:03:35;;;;;;;6.60;4.72;;;23.90;49.10;;;;;;4973553;28;20490;-62
2023/07/09 04:06:02;;;;;;;7.95;4.80;;;23.90;49.10;;;;;;4977910;28;20066;-60
2023/07/09 04:08:29;;;;;;;7.18;4.70;;;23.90;49.60;;;;;;4980448;28;20073;-60
2023/07/09 04:11:00;;;;;;;10.25;5.03;;;23.90;49.10;;;;;;4980487;28;20051;-60
2023/07/09 04:13:29;;;;;;;7.63;4.80;;;23.90;49.20;;;;;;4981614;28;20061;-60
2023/07/09 04:15:57;;;;;;;8.13;4.93;;;23.80;49.10;;;;;;4977951;28;20222;-60
2023/07/09 04:18:25;;;;;;;8.07;4.65;;;23.90;49.20;;;;;;4978348;28;20156;-60
2023/07/09 04:20:53;;;;;;;9.57;5.45;;;23.80;49.20;;;;;;4980816;28;20050;-60
2023/07/09 04:23:21;;;;;;;8.15;4.63;;;23.90;49.30;;;;;;4982540;28;20061;-60
2023/07/09 04:25:48;;;;;;;8.98;4.28;;;23.80;49.80;;;;;;4979977;28;20057;-62
2023/07/09 04:28:15;;;;;;;7.70;4.50;;;23.80;49.40;;;;;;4976691;28;20534;-63
2023/07/09 04:30:49;;;;;;;7.63;4.78;;;23.90;49.40;;;;;;4968150;28;20597;-64
2023/07/09 04:33:17;;;;;;;9.68;4.25;;;23.80;49.50;;;;;;5000502;28;20060;-64
2023/07/09 04:35:45;;;;;;;6.53;4.25;;;23.80;49.40;;;;;;4998563;28;20054;-64
2023/07/09 04:38:13;;;;;;;7.85;4.30;;;23.80;49.50;;;;;;5000635;28;20184;-62
2023/07/09 04:40:40;;;;;;;8.13;4.72;;;23.80;49.50;;;;;;4994394;28;20073;-62
2023/07/09 04:43:07;;;;;;;7.43;4.70;;;23.90;49.50;;;;;;4995241;28;20058;-62
2023/07/09 04:45:35;;;;;;;8.05;4.93;;;23.80;49.50;;;;;;4995485;28;20788;-61
2023/07/09 04:48:04;;;;;;;9.93;4.78;;;23.80;49.50;;;;;;4995558;28;20066;-63
2023/07/09 04:50:31;;;;;;;6.45;4.60;;;23.90;49.60;;;;;;4995922;28;20588;-62
2023/07/09 04:52:59;;;;;;;7.55;4.60;;;23.90;49.60;;;;;;4995571;28;20058;-61
2023/07/09 04:55:27;;;;;;;6.80;5.05;;;23.90;49.70;;;;;;4998056;28;20057;-62
2023/07/09 04:57:54;;;;;;;7.00;4.28;;;23.90;49.70;;;;;;4999224;28;20057;-62
2023/07/09 05:00:22;;;;;;;8.95;4.47;;;23.80;49.70;;;;;;5000441;28;20080;-62
2023/07/09 05:02:49;;;;;;;8.27;4.30;;;23.90;49.70;;;;;;4999429;28;20058;-61
2023/07/09 05:05:18;;;;;;;7.03;4.75;;;23.90;49.80;;;;;;4999708;28;20057;-61
2023/07/09 05:07:45;;;;;;;9.07;4.80;;;23.90;49.80;;;;;;4999399;28;20050;-63
2023/07/09 05:10:12;;;;;;;9.25;4.72;;;23.90;49.80;;;;;;4999479;28;20053;-62
2023/07/09 05:12:50;;;;;;;7.93;4.53;;;24.00;49.90;;;;;;4998635;28;20486;-62
2023/07/09 05:15:18;;;;;;;6.72;4.78;;;24.00;50.10;;;;;;4998833;28;20060;-62
2023/07/09 05:17:46;;;;;;;7.40;4.78;;;24.00;50.00;;;;;;4996968;28;20375;-62
2023/07/09 05:20:14;;;;;;;7.50;4.18;;;24.00;50.00;;;;;;4998000;28;20057;-62
2023/07/09 05:22:42;;;;;;;6.80;4.55;;;24.00;50.00;;;;;;4998673;28;20489;-61
2023/07/09 05:25:10;;;;;;;7.00;4.45;;;24.00;50.10;;;;;;4998532;28;20053;-62
2023/07/09 05:27:37;;;;;;;8.30;4.63;;;24.00;50.10;;;;;;4996979;28;20054;-62
2023/07/09 05:30:06;;;;;;;8.63;4.68;;;24.00;50.10;;;;;;4997996;28;20734;-61
2023/07/09 05:32:33;;;;;;;8.10;5.15;;;24.00;50.10;;;;;;4997691;28;20493;-61
2023/07/09 05:35:00;;;;;;;7.78;5.40;;;24.10;50.20;;;;;;4997675;28;20133;-62
2023/07/09 05:37:28;;;;;;;10.27;4.95;;;24.10;50.30;;;;;;4997961;28;20057;-61
2023/07/09 05:39:57;;;;;;;10.45;4.88;;;24.10;50.30;;;;;;4998684;28;20060;-61
2023/07/09 05:42:24;;;;;;;9.73;4.75;;;24.10;50.40;;;;;;4998255;28;20054;-61
2023/07/09 05:44:52;;;;;;;6.75;3.92;;;24.10;50.30;;;;;;4997232;28;20498;-60
2023/07/09 05:47:19;;;;;;;7.40;4.53;;;24.10;50.40;;;;;;4994383;28;20516;-61
2023/07/09 05:49:49;;;;;;;8.30;4.82;;;24.20;50.40;;;;;;4997347;28;20508;-62
2023/07/09 05:52:16;;;;;;;9.25;4.55;;;24.20;50.40;;;;;;4997350;28;20057;-62
2023/07/09 05:54:44;;;;;;;6.35;4.78;;;24.20;50.40;;;;;;5000115;28;20510;-61
2023/07/09 05:57:13;;;;;;;9.75;4.75;;;24.20;50.40;;;;;;4996742;28;20061;-60
2023/07/09 05:59:40;;;;;;;7.20;4.50;;;24.30;50.50;;;;;;4997987;28;20481;-60
2023/07/09 06:02:11;;;;;;;7.95;4.60;;;24.30;50.50;;;;;;4992960;28;20065;-60
2023/07/09 06:04:39;;;;;;;7.38;4.85;;;24.40;50.60;;;;;;4995984;28;20054;-63
2023/07/09 06:07:07;;;;;;;8.27;4.65;;;24.30;50.60;;;;;;4996216;28;20432;-61
2023/07/09 06:09:34;;;;;;;8.75;4.60;;;24.40;50.70;;;;;;4999625;28;20054;-60
2023/07/09 06:12:01;;;;;;;7.97;4.70;;;24.40;50.70;;;;;;4993365;28;20046;-61
2023/07/09 06:14:31;;;;;;;9.48;4.68;;;24.50;50.70;;;;;;4997405;28;20042;-60
2023/07/09 06:16:59;;;;;;;9.50;4.80;;;24.50;50.80;;;;;;4992635;28;20073;-61
2023/07/09 06:19:26;;;;;;;6.80;4.57;;;24.60;50.90;;;;;;4997677;28;20070;-60
2023/07/09 06:21:54;;;;;;;7.38;4.32;;;24.60;50.80;;;;;;4996426;28;20057;-60
2023/07/09 06:24:21;;;;;;;8.90;5.00;;;24.60;50.70;;;;;;4999112;28;20062;-61
2023/07/09 06:26:48;;;;;;;10.65;4.93;;;24.70;50.70;;;;;;4996476;28;20504;-60
2023/07/09 06:29:15;;;;;;;8.73;4.75;;;24.70;50.70;;;;;;4997829;28;20061;-60
2023/07/09 06:31:44;;;;;;;12.05;4.65;;;24.80;50.60;;;;;;4999426;28;20053;-61
2023/07/09 06:34:11;;;;;;;8.93;4.53;;;24.80;50.50;;;;;;4994259;28;20382;-61
2023/07/09 06:36:38;;;;;;;10.70;4.68;;;24.90;50.60;;;;;;4995470;28;20121;-61
2023/07/09 06:39:06;;;;;;;9.73;4.25;;;24.90;50.80;;;;;;4997934;28;20061;-61
2023/07/09 06:41:38;;;;;;;8.32;4.88;;;25.00;51.00;;;;;;4996139;28;20073;-61
2023/07/09 06:44:06;;;;;;;6.35;4.50;;;25.00;51.20;;;;;;4993615;28;20092;-61
2023/07/09 06:46:34;;;;;;;10.27;4.50;;;25.10;51.10;;;;;;4999302;28;20058;-61
2023/07/09 06:49:05;;;;;;;8.95;4.50;;;25.10;51.20;;;;;;4993761;28;21234;-59
2023/07/09 06:51:32;;;;;;;8.13;4.75;;;25.20;51.40;;;;;;4998700;28;20065;-60
2023/07/09 06:54:00;;;;;;;8.85;4.57;;;25.20;51.50;;;;;;5000531;28;20046;-62
2023/07/09 06:56:27;;;;;;;6.28;4.72;;;25.30;51.50;;;;;;4998539;28;20050;-60
2023/07/09 06:58:54;;;;;;;7.80;4.35;;;25.30;51.50;;;;;;4999502;28;20046;-62
2023/07/09 07:01:22;;;;;;;7.72;4.70;;;25.40;51.30;;;;;;4999075;28;20417;-60
2023/07/09 07:03:49;;;;;;;9.10;5.03;;;25.40;51.30;;;;;;5000576;28;20057;-60
2023/07/09 07:06:17;;;;;;;7.07;4.25;;;25.50;51.20;;;;;;4999995;28;20489;-61
2023/07/09 07:08:45;;;;;;;8.63;4.15;;;25.50;51.10;;;;;;4995593;28;20058;-62
2023/07/09 07:11:12;;;;;;;9.68;4.65;;;25.50;51.10;;;;;;5000961;28;20516;-60
2023/07/09 07:13:40;;;;;;;8.60;4.57;;;25.60;51.00;;;;;;5000794;28;20061;-62
2023/07/09 07:16:09;;;;;;;7.15;4.50;;;25.70;51.10;;;;;;5000599;28;20398;-61
2023/07/09 07:18:37;;;;;;;8.90;4.75;;;25.70;51.00;;;;;;5000087;28;20053;-61
2023/07/09 07:21:06;;;;;;;7.43;4.90;;;25.80;51.10;;;;;;4998582;28;20092;-61
2023/07/09 07:23:36;;;;;;;7.15;5.00;;;25.80;51.10;;;;;;5001135;28;20054;-62
2023/07/09 07:26:03;;;;;;;6.80;4.03;;;25.90;51.10;;;;;;5001721;28;20053;-60
2023/07/09 07:28:31;;;;;;;8.95;4.57;;;26.00;51.20;;;;;;5000391;28;20057;-59
2023/07/09 07:31:02;;;;;;;8.98;4.97;;;26.00;51.20;;;;;;5001503;28;20053;-60
2023/07/09 07:33:29;;;;;;;8.05;4.78;;;26.10;51.20;;;;;;4999131;28;20050;-59
2023/07/09 07:35:57;;;;;;;6.95;4.90;;;26.20;51.00;;;;;;4996519;28;20050;-59
2023/07/09 07:38:24;;;;;;;9.02;4.90;;;26.20;50.90;;;;;;5000890;28;20461;-60
2023/07/09 07:40:54;;;;;;;7.05;4.20;;;26.30;50.90;;;;;;4999271;28;20781;-59
2023/07/09 07:43:21;;;;;;;10.98;4.90;;;26.40;50.90;;;;;;4998853;28;20084;-59
2023/07/09 07:45:49;;;;;;;6.88;4.50;;;26.50;51.00;;;;;;5000043;28;20060;-61
2023/07/09 07:48:16;;;;;;;7.65;4.57;;;26.50;50.80;;;;;;4999776;28;20441;-61
2023/07/09 07:50:45;;;;;;;6.85;4.20;;;26.60;50.90;;;;;;5000516;28;20073;-60
2023/07/09 07:53:13;;;;;;;7.38;4.20;;;26.70;50.90;;;;;;5000532;28;20048;-61
2023/07/09 07:55:40;;;;;;;6.22;4.45;;;26.80;50.70;;;;;;4999501;28;20493;-60
2023/07/09 07:58:11;;;;;;;20.60;10.85;;;26.90;50.60;;;;;;4999906;28;20058;-58
2023/07/09 08:00:39;;;;;;;7.97;5.43;;;26.90;50.60;;;;;;5000774;28;20057;-60
2023/07/09 08:03:06;;;;;;;8.63;5.15;;;27.00;50.30;;;;;;4996233;28;20065;-61
2023/07/09 08:05:33;;;;;;;9.10;4.47;;;27.10;50.10;;;;;;4998671;28;20588;-60
2023/07/09 08:08:00;;;;;;;5.65;4.32;;;27.10;50.00;;;;;;4998414;28;20053;-60
2023/07/09 08:10:28;;;;;;;10.35;4.75;;;27.20;50.10;;;;;;4998011;28;20164;-60
2023/07/09 08:12:57;;;;;;;7.68;4.07;;;27.20;50.10;;;;;;4997448;28;20603;-60
2023/07/09 08:15:26;;;;;;;8.48;4.32;;;27.30;50.00;;;;;;4997057;28;20058;-59
2023/07/09 08:17:53;;;;;;;8.50;4.47;;;27.40;49.80;;;;;;4999382;28;20473;-59
2023/07/09 08:20:20;;;;;;;5.50;4.25;;;27.50;49.90;;;;;;4999895;28;20057;-58
2023/07/09 08:22:47;;;;;;;7.50;4.30;;;27.50;49.90;;;;;;4998420;28;20088;-61
2023/07/09 08:25:15;;;;;;;8.70;4.65;;;27.60;49.80;;;;;;4999767;28;20081;-59
2023/07/09 08:27:42;;;;;;;13.48;4.45;;;27.70;49.60;;;;;;4999104;28;20519;-59
2023/07/09 08:30:10;;;;;;;9.00;4.40;;;27.80;49.50;;;;;;5000419;28;20057;-59
2023/07/09 08:32:39;;;;;;;8.73;4.80;;;27.90;49.20;;;;;;4995370;28;20504;-60
2023/07/09 08:35:07;;;;;;;8.60;4.20;;;28.00;49.20;;;;;;5000532;28;20077;-59
2023/07/09 08:37:34;;;;;;;8.65;4.70;;;28.00;49.20;;;;;;4999649;28;20046;-60
2023/07/09 08:40:01;;;;;;;9.20;4.80;;;28.10;49.10;;;;;;4995018;28;20469;-61
2023/07/09 08:42:33;;;;;;;5.97;3.97;;;28.20;48.90;;;;;;5000439;28;20058;-62
2023/07/09 08:45:12;;;;;;;5.70;4.30;;;28.30;48.80;;;;;;4995634;28;20398;-60
2023/07/09 08:47:49;;;;;;;8.98;4.78;;;28.30;48.80;;;;;;4994747;28;20054;-61
2023/07/09 08:50:20;;;;;;;7.68;4.35;;;28.40;48.60;;;;;;4993632;28;20065;-61
2023/07/09 08:52:50;;;;;;;9.60;4.32;;;28.50;48.30;;;;;;4997562;28;20054;-58
2023/07/09 08:55:20;;;;;;;6.43;4.38;;;28.60;48.10;;;;;;4997084;28;20481;-57
2023/07/09 08:57:50;;;;;;;6.13;4.15;;;28.70;48.10;;;;;;4994842;28;20045;-60
2023/07/09 09:00:21;;;;;;;13.13;4.45;;;28.70;48.00;;;;;;4993192;28;20076;-61
2023/07/09 09:02:53;;;;;;;8.13;4.45;;;28.80;48.20;;;;;;4996914;28;20128;-60
2023/07/09 09:05:23;;;;;;;7.53;4.60;;;28.90;48.00;;;;;;4996422;28;20181;-61
2023/07/09 09:07:55;;;;;;;6.65;4.20;;;28.90;47.70;;;;;;4995524;28;20050;-59
2023/07/09 09:10:29;;;;;;;6.10;4.32;;;29.00;47.70;;;;;;4995867;28;20058;-59
2023/07/09 09:13:06;;;;;;;8.93;5.32;;;29.10;47.80;;;;;;4997350;28;20529;-58
2023/07/09 09:15:34;;;;;;;11.18;5.07;;;29.20;47.50;;;;;;4996775;28;20050;-60
2023/07/09 09:18:19;;;;;;;8.93;4.50;;;29.20;47.40;;;;;;4996286;28;20054;-59
2023/07/09 09:20:51;;;;;;;7.88;4.47;;;29.30;47.50;;;;;;4990898;28;20046;-60
2023/07/09 09:23:19;;;;;;;7.43;4.50;;;29.40;47.20;;;;;;4997289;28;20057;-59
2023/07/09 09:25:52;;;;;;;6.18;4.32;;;29.40;47.30;;;;;;4992542;28;20058;-60
2023/07/09 09:28:20;;;;;;;8.47;4.10;;;29.60;47.20;;;;;;4998731;28;20054;-61
2023/07/09 09:30:47;;;;;;;8.93;4.63;;;29.60;47.30;;;;;;4993738;28;21144;-60
2023/07/09 09:33:18;;;;;;;7.85;4.75;;;29.70;47.20;;;;;;4994987;28;20528;-60
2023/07/09 09:35:47;;;;;;;10.25;4.63;;;29.80;46.80;;;;;;4994912;28;20053;-61
2023/07/09 09:38:18;;;;;;;8.55;4.45;;;29.90;46.70;;;;;;4997333;28;20060;-61
2023/07/09 09:40:45;;;;;;;7.72;4.80;;;29.90;46.50;;;;;;4998455;28;20064;-62
2023/07/09 09:43:15;;;;;;;6.57;4.53;;;30.00;46.30;;;;;;4997775;28;20050;-59
2023/07/09 09:45:45;;;;;;;7.82;5.00;;;30.20;46.30;;;;;;4997957;28;20058;-60
2023/07/09 09:48:17;;;;;;;7.50;4.53;;;30.20;45.80;;;;;;5000013;28;20053;-59
2023/07/09 09:50:46;;;;;;;8.48;4.90;;;30.30;45.60;;;;;;4997757;28;20057;-61
2023/07/09 09:53:20;;;;;;;6.95;4.82;;;30.40;45.50;;;;;;4997618;28;20057;-60
2023/07/09 09:55:49;;;;;;;7.40;4.25;;;30.50;45.10;;;;;;4998301;28;20053;-61
2023/07/09 09:58:17;;;;;;;5.43;3.92;;;30.50;44.80;;;;;;4998843;28;20076;-59
2023/07/09 10:00:51;;;;;;;7.80;4.35;;;30.60;45.20;;;;;;4997888;28;20050;-61
2023/07/09 10:03:20;;;;;;;7.18;4.15;;;30.70;44.60;;;;;;4996232;28;20498;-60
2023/07/09 10:05:53;;;;;;;8.27;4.22;;;30.70;44.60;;;;;;4997645;28;20058;-61
2023/07/09 10:08:40;;;;;;;7.03;4.30;;;30.80;44.30;;;;;;4998398;28;20065;-59
2023/07/09 10:11:16;;;;;;;7.47;4.30;;;30.90;44.10;;;;;;4998883;28;20065;-60
2023/07/09 10:13:46;;;;;;;8.55;4.45;;;31.00;44.00;;;;;;4998661;28;20050;-59
2023/07/09 10:16:22;;;;;;;8.48;4.18;;;31.10;43.70;;;;;;4998012;28;20518;-59
2023/07/09 10:18:57;;;;;;;9.02;4.45;;;31.10;43.50;;;;;;4996500;28;20045;-62
2023/07/09 10:21:34;;;;;;;8.05;4.28;;;31.20;43.20;;;;;;4993719;28;20057;-59
2023/07/09 10:24:16;;;;;;;7.65;4.40;;;31.30;43.30;;;;;;4999156;28;20046;-59
2023/07/09 10:26:49;;;;;;;9.52;4.57;;;31.40;42.90;;;;;;4994212;28;20057;-61
2023/07/09 10:29:52;;;;;;;6.72;3.90;;;31.50;43.00;;;;;;4999253;28;20504;-61
2023/07/09 10:32:32;;;;;;;6.82;4.10;;;31.60;42.90;;;;;;4999697;28;20076;-61
2023/07/09 10:35:07;;;;;;;6.32;4.03;;;31.70;42.20;;;;;;5000581;28;20054;-60
2023/07/09 10:38:08;;;;;;;7.95;4.63;;;31.70;42.10;;;;;;5001192;28;20053;-61
2023/07/09 10:40:41;;;;;;;8.10;4.15;;;31.80;41.90;;;;;;5003037;28;20049;-61
2023/07/09 10:43:16;;;;;;;6.03;4.30;;;31.90;41.50;;;;;;5000319;28;20407;-59
2023/07/09 10:45:58;;;;;;;9.65;4.75;;;31.90;41.10;;;;;;5001122;28;20478;-63
2023/07/09 10:48:33;;;;;;;7.03;3.83;;;32.00;41.20;;;;;;5003508;28;20054;-59
2023/07/09 10:51:03;;;;;;;5.63;3.85;;;32.00;40.90;;;;;;4998695;28;20058;-65
2023/07/09 10:53:37;;;;;;;7.20;4.13;;;32.10;41.10;;;;;;4999719;28;20769;-60
2023/07/09 10:56:11;;;;;;;6.30;3.45;;;32.10;40.70;;;;;;5002551;28;20050;-61
2023/07/09 10:58:44;;;;;;;7.68;3.95;;;32.20;40.60;;;;;;5001364;28;20053;-62
2023/07/09 11:01:15;;;;;;;6.07;3.90;;;32.30;40.40;;;;;;5001900;28;20053;-61
2023/07/09 11:03:48;;;;;;;7.85;4.22;;;32.30;40.40;;;;;;4997881;28;20363;-63
2023/07/09 11:06:22;;;;;;;5.85;3.90;;;32.40;40.00;;;;;;4999535;28;20501;-60
2023/07/09 11:08:53;;;;;;;8.10;3.92;;;32.40;39.90;;;;;;5000106;28;20064;-58
2023/07/09 11:11:30;;;;;;;6.03;4.03;;;32.50;39.60;;;;;;5002632;28;20049;-58
2023/07/09 11:14:01;;;;;;;6.40;4.05;;;32.60;39.10;;;;;;5000104;28;20081;-57
2023/07/09 11:16:32;;;;;;;6.22;4.18;;;32.60;39.30;;;;;;5001056;28;20371;-60
2023/07/09 11:19:02;;;;;;;9.63;3.50;;;32.60;39.10;;;;;;5000466;28;20065;-56
2023/07/09 11:21:31;;;;;;;10.60;4.05;;;32.70;39.30;;;;;;4999851;28;20061;-58
2023/07/09 11:24:00;;;;;;;7.75;3.97;;;32.80;38.20;;;;;;5002422;28;20050;-62
2023/07/09 11:26:29;;;;;;;11.60;3.58;;;32.80;38.00;;;;;;5001394;28;20058;-59
2023/07/09 11:29:14;;;;;;;5.05;3.80;;;32.90;38.00;;;;;;5000596;28;20054;-60
2023/07/09 11:31:45;;;;;;;8.40;4.38;;;32.90;38.00;;;;;;5000462;28;20053;-61
2023/07/09 11:34:19;;;;;;;50.95;5.50;;;32.90;38.10;;;;;;4996837;28;20541;-61
2023/07/09 11:36:56;;;;;;;7.57;3.97;;;33.00;37.70;;;;;;4997560;28;20486;-61
2023/07/09 11:39:30;;;;;;;6.75;3.95;;;33.10;37.20;;;;;;5002381;28;20056;-59
2023/07/09 11:41:57;;;;;;;;;;;33.10;37.40;;;;;;5001669;28;20072;-60
2023/07/09 11:44:28;;;;;;;8.00;4.13;;;33.10;38.00;;;;;;5000417;28;20273;-60
2023/07/09 11:47:02;;;;;;;8.02;3.75;;;33.10;37.20;;;;;;4999407;28;20061;-58
2023/07/09 11:49:47;;;;;;;7.18;4.15;;;33.20;36.90;;;;;;5000361;28;20520;-61
2023/07/09 11:52:19;;;;;;;4.80;3.53;;;33.30;37.10;;;;;;4998040;28;20057;-61
2023/07/09 11:54:46;;;;;;;7.13;3.75;;;33.30;37.10;;;;;;4999575;28;20084;-59
2023/07/09 11:57:14;;;;;;;5.20;3.83;;;33.30;36.90;;;;;;5001829;28;20584;-61
2023/07/09 11:59:42;;;;;;;5.78;3.83;;;33.30;36.90;;;;;;5000339;28;20066;-61
2023/07/09 12:02:17;;;;;;;7.18;4.22;;;33.40;36.50;;;;;;4997766;28;20367;-62
2023/07/09 12:04:48;;;;;;;7.22;3.63;;;33.50;36.40;;;;;;4999414;28;20354;-61
2023/07/09 12:07:18;;;;;;;6.60;3.85;;;33.50;36.60;;;;;;4994561;28;20482;-60
2023/07/09 12:09:50;;;;;;;9.45;4.78;;;33.50;36.50;;;;;;5000145;28;20050;-60
2023/07/09 12:12:20;;;;;;;6.38;4.18;;;33.60;35.90;;;;;;4998903;28;20065;-61
2023/07/09 12:14:47;;;;;;;5.40;3.85;;;33.60;35.80;;;;;;4997305;28;20528;-59
2023/07/09 12:17:15;;;;;;;6.05;3.90;;;33.70;36.40;;;;;;4999887;28;20057;-60
2023/07/09 12:19:43;;;;;;;6.35;4.15;;;33.80;36.00;;;;;;5000382;28;20312;-59
2023/07/09 12:22:18;;;;;;;6.13;3.88;;;33.90;35.40;;;;;;5000023;28;20532;-60
2023/07/09 12:24:47;;;;;;;4.82;3.40;;;33.90;35.10;;;;;;4998702;28;20053;-60
2023/07/09 12:27:26;;;;;;;5.63;3.22;;;34.00;35.20;;;;;;5000043;28;20057;-60
2023/07/09 12:29:56;;;;;;;5.00;3.28;;;34.10;35.00;;;;;;5001123;28;20054;-60
2023/07/09 12:32:26;;;;;;;5.68;3.55;;;34.20;34.70;;;;;;4997939;28;20707;-60
2023/07/09 12:34:55;;;;;;;8.10;3.72;;;34.20;34.70;;;;;;4997549;28;20056;-59
2023/07/09 12:37:28;;;;;;;6.30;3.30;;;34.30;34.30;;;;;;4997270;28;20065;-61
2023/07/09 12:39:56;;;;;;;6.10;3.28;;;34.30;34.10;;;;;;5000655;28;20065;-58
2023/07/09 12:42:31;;;;;;;5.05;3.30;;;34.30;34.50;;;;;;4996599;28;20058;-58
2023/07/09 12:44:58;;;;;;;7.72;3.47;;;34.40;34.20;;;;;;4997286;28;20312;-59
2023/07/09 12:47:26;;;;;;;12.55;3.75;;;34.40;34.10;;;;;;5002034;28;20505;-60
2023/07/09 12:50:02;;;;;;;5.45;3.70;;;34.50;34.00;;;;;;4999084;28;20061;-57
2023/07/09 12:52:30;;;;;;;5.22;3.60;;;34.50;34.20;;;;;;5001144;28;20069;-61
2023/07/09 12:54:59;;;;;;;4.72;3.13;;;34.60;34.30;;;;;;4997453;28;20058;-59
2023/07/09 12:57:27;;;;;;;6.78;4.07;;;34.60;34.00;;;;;;4997857;28;20061;-58
2023/07/09 12:59:56;;;;;;;5.72;3.50;;;34.60;33.90;;;;;;4996729;28;20053;-58